Terminal Aerodrome Forecast
Issued by NWS

Home | Current Version | Previous Version | Text Only | Print | Product List | Glossary On
Versions: 1 2 3 4 5 6 7 8 9 10 11 12 13 14 15 16 17 18 19
000
FTUS43 KICT 252340
TAFHUT
TAF
KHUT 252340Z 2600/2624 17009KT P6SM SCT030 BKN045
     FM260300 14007KT P6SM SCT012 BKN025
     FM260600 14007KT 6SM BR BKN017
     FM260900 13009KT 5SM BR OVC008
     FM261600 17014KT P6SM SCT012 BKN025
     FM261900 17015G24KT P6SM SCT020 BKN030=

USA.gov is the U.S. government's official web portal to all federal, state and local government web resources and services.